createdAt,value
2022-11-12T00:00:56.832Z,4.70
2022-11-12T00:03:23.434Z,4.60
2022-11-12T00:05:50.794Z,4.60
2022-11-12T00:08:18.168Z,4.60
2022-11-12T00:10:45.374Z,4.50
2022-11-12T00:13:13.932Z,4.50
2022-11-12T00:15:40.955Z,4.40
2022-11-12T00:18:08.052Z,4.40
2022-11-12T00:20:35.151Z,4.40
2022-11-12T00:23:02.190Z,4.40
2022-11-12T00:25:29.380Z,4.30
2022-11-12T00:28:05.350Z,4.30
2022-11-12T00:30:32.127Z,4.30
2022-11-12T00:33:02.536Z,4.30
2022-11-12T00:35:30.676Z,4.20
2022-11-12T00:37:57.793Z,4.20
2022-11-12T00:40:25.070Z,4.20
2022-11-12T00:42:53.096Z,4.20
2022-11-12T00:45:20.414Z,4.20
2022-11-12T00:47:47.037Z,4.10
2022-11-12T00:50:15.909Z,4.20
2022-11-12T00:52:42.783Z,4.10
2022-11-12T00:55:09.859Z,4.10
2022-11-12T00:57:36.472Z,4.10
2022-11-12T01:00:05.428Z,4.10
2022-11-12T01:02:35.713Z,4.10
2022-11-12T01:05:05.612Z,4.00
2022-11-12T01:07:32.203Z,4.00
2022-11-12T01:09:58.843Z,4.00
2022-11-12T01:12:25.541Z,4.00
2022-11-12T01:14:52.808Z,4.00
2022-11-12T01:17:19.472Z,4.00
2022-11-12T01:19:46.085Z,3.90
2022-11-12T01:22:12.696Z,3.90
2022-11-12T01:24:39.445Z,3.90
2022-11-12T01:27:06.372Z,3.90
2022-11-12T01:29:33.147Z,3.90
2022-11-12T01:31:59.785Z,3.90
2022-11-12T01:34:27.068Z,3.90
2022-11-12T01:36:53.961Z,3.80
2022-11-12T01:39:20.548Z,3.80
2022-11-12T01:41:47.192Z,3.80
2022-11-12T01:44:20.716Z,3.80
2022-11-12T01:47:04.767Z,3.80
2022-11-12T01:49:48.714Z,3.80
2022-11-12T01:52:34.201Z,3.80
2022-11-12T01:55:09.898Z,3.70
2022-11-12T01:57:45.321Z,3.70
2022-11-12T02:00:13.834Z,3.70
2022-11-12T02:02:43.679Z,3.70
2022-11-12T02:05:11.236Z,3.80
2022-11-12T02:07:40.930Z,3.70
2022-11-12T02:10:09.007Z,3.70
2022-11-12T02:12:54.880Z,3.80
2022-11-12T02:15:21.570Z,3.80
2022-11-12T02:17:48.172Z,3.80
2022-11-12T02:20:15.227Z,3.80
2022-11-12T02:22:42.005Z,3.70
2022-11-12T02:25:13.993Z,3.80
2022-11-12T02:27:40.935Z,3.80
2022-11-12T02:30:08.365Z,3.80
2022-11-12T02:32:35.100Z,3.80
2022-11-12T02:35:01.667Z,3.70
2022-11-12T02:37:28.379Z,3.70
2022-11-12T02:39:54.942Z,3.70
2022-11-12T02:42:21.556Z,3.70
2022-11-12T02:44:48.372Z,3.60
2022-11-12T02:47:14.961Z,3.60
2022-11-12T02:49:41.604Z,3.60
2022-11-12T02:52:08.617Z,3.60
2022-11-12T02:54:35.215Z,3.60
2022-11-12T02:57:01.807Z,3.50
2022-11-12T02:59:28.447Z,3.50
2022-11-12T03:01:55.031Z,3.50
2022-11-12T03:04:21.650Z,3.50
2022-11-12T03:06:48.386Z,3.50
2022-11-12T03:09:15.134Z,3.40
2022-11-12T03:11:41.809Z,3.40
2022-11-12T03:14:08.602Z,3.40
2022-11-12T03:16:35.221Z,3.40
2022-11-12T03:19:01.806Z,3.30
2022-11-12T03:21:28.432Z,3.30
2022-11-12T03:23:55.066Z,3.30
2022-11-12T03:26:21.775Z,3.30
2022-11-12T03:28:48.452Z,3.30
2022-11-12T03:31:15.049Z,3.30
2022-11-12T03:33:41.676Z,3.20
2022-11-12T03:36:08.407Z,3.20
2022-11-12T03:38:35.190Z,3.20
2022-11-12T03:41:01.898Z,3.20
2022-11-12T03:43:28.490Z,3.20
2022-11-12T03:45:55.203Z,3.20
2022-11-12T03:48:22.090Z,3.10
2022-11-12T03:50:48.826Z,3.10
2022-11-12T03:53:15.784Z,3.10
2022-11-12T03:55:42.413Z,3.10
2022-11-12T03:58:09.067Z,3.10
2022-11-12T04:00:35.691Z,3.10
2022-11-12T04:03:02.332Z,3.10
2022-11-12T04:05:47.510Z,3.10
2022-11-12T04:08:38.302Z,3.10
2022-11-12T04:11:08.463Z,3.10
2022-11-12T04:13:38.387Z,3.10
2022-11-12T04:16:29.540Z,3.00
2022-11-12T04:19:16.874Z,3.00
2022-11-12T04:21:50.727Z,3.00
2022-11-12T04:24:49.027Z,3.00
2022-11-12T04:27:27.499Z,3.00
2022-11-12T04:30:13.219Z,3.00
2022-11-12T04:32:47.359Z,3.00
2022-11-12T04:35:14.113Z,3.00
2022-11-12T04:37:47.087Z,3.00
2022-11-12T04:40:35.496Z,3.00
2022-11-12T04:43:22.521Z,3.00
2022-11-12T04:45:51.985Z,2.90
2022-11-12T04:48:19.542Z,2.90
2022-11-12T04:50:49.273Z,2.80
2022-11-12T04:53:16.011Z,2.80
2022-11-12T04:55:42.645Z,2.80
2022-11-12T04:58:09.455Z,2.80
2022-11-12T05:00:36.171Z,2.80
2022-11-12T05:03:02.861Z,2.80
2022-11-12T05:05:33.589Z,2.70
2022-11-12T05:08:02.300Z,2.70
2022-11-12T05:10:29.656Z,2.70
2022-11-12T05:12:56.311Z,2.70
2022-11-12T05:15:23.100Z,2.70
2022-11-12T05:17:49.751Z,2.60
2022-11-12T05:20:17.723Z,2.60
2022-11-12T05:22:59.155Z,2.60
2022-11-12T05:25:31.154Z,2.60
2022-11-12T05:27:57.739Z,2.60
2022-11-12T05:30:24.426Z,2.50
2022-11-12T05:32:51.045Z,2.50
2022-11-12T05:35:17.638Z,2.50
2022-11-12T05:37:44.274Z,2.50
2022-11-12T05:40:11.334Z,2.40
2022-11-12T05:42:38.746Z,2.40
2022-11-12T05:45:06.179Z,2.40
2022-11-12T05:47:32.806Z,2.40
2022-11-12T05:49:59.392Z,2.40
2022-11-12T05:52:26.117Z,2.30
2022-11-12T05:54:52.757Z,2.30
2022-11-12T05:57:19.336Z,2.30
2022-11-12T05:59:45.921Z,2.30
2022-11-12T06:02:12.613Z,2.30
2022-11-12T06:04:39.348Z,2.30
2022-11-12T06:07:05.980Z,2.20
2022-11-12T06:09:32.686Z,2.20
2022-11-12T06:11:59.323Z,2.20
2022-11-12T06:14:25.924Z,2.20
2022-11-12T06:16:52.539Z,2.20
2022-11-12T06:19:19.172Z,2.20
2022-11-12T06:21:45.745Z,2.20
2022-11-12T06:24:12.561Z,2.10
2022-11-12T06:26:39.150Z,2.10
2022-11-12T06:29:06.056Z,2.10
2022-11-12T06:31:32.664Z,2.10
2022-11-12T06:33:59.250Z,2.10
2022-11-12T06:36:25.880Z,2.10
2022-11-12T06:38:52.657Z,2.10
2022-11-12T06:41:19.439Z,2.10
2022-11-12T06:43:46.029Z,2.10
2022-11-12T06:46:15.599Z,2.10
2022-11-12T06:48:42.562Z,2.10
2022-11-12T06:51:18.573Z,2.20
2022-11-12T06:53:45.470Z,2.20
2022-11-12T06:56:12.663Z,2.20
2022-11-12T06:58:39.847Z,2.20
2022-11-12T07:01:15.287Z,2.20
2022-11-12T07:03:43.013Z,2.20
2022-11-12T07:06:15.378Z,2.20
2022-11-12T07:08:42.457Z,2.20
2022-11-12T07:11:09.706Z,2.30
2022-11-12T07:13:37.254Z,2.30
2022-11-12T07:16:06.271Z,2.30
2022-11-12T07:18:35.012Z,2.30
2022-11-12T07:21:04.064Z,2.40
2022-11-12T07:23:32.726Z,2.50
2022-11-12T07:26:07.677Z,2.50
2022-11-12T07:28:34.373Z,2.50
2022-11-12T07:31:03.262Z,2.60
2022-11-12T07:33:30.523Z,2.70
2022-11-12T07:36:05.451Z,2.80
2022-11-12T07:38:34.266Z,2.90
2022-11-12T07:41:07.003Z,3.00
2022-11-12T07:43:35.186Z,3.20
2022-11-12T07:46:10.337Z,3.30
2022-11-12T07:48:38.539Z,3.50
2022-11-12T07:51:25.537Z,3.60
2022-11-12T07:53:58.996Z,3.80
2022-11-12T07:56:27.535Z,4.00
2022-11-12T07:58:54.402Z,4.20
2022-11-12T08:01:33.264Z,4.30
2022-11-12T08:04:01.540Z,4.50
2022-11-12T08:06:28.948Z,4.70
2022-11-12T08:08:57.378Z,4.80
2022-11-12T08:11:24.556Z,4.90
2022-11-12T08:13:51.738Z,5.00
2022-11-12T08:16:18.487Z,5.20
2022-11-12T08:18:46.083Z,5.30
2022-11-12T08:21:15.544Z,5.40
2022-11-12T08:23:42.585Z,5.50
2022-11-12T08:26:11.978Z,5.60
2022-11-12T08:28:39.454Z,5.80
2022-11-12T08:31:14.158Z,5.80
2022-11-12T08:33:41.260Z,6.00
2022-11-12T08:36:10.580Z,6.10
2022-11-12T08:38:37.740Z,6.20
2022-11-12T08:41:06.712Z,6.30
2022-11-12T08:43:33.967Z,6.40
2022-11-12T08:46:01.274Z,6.50
2022-11-12T08:48:29.706Z,6.70
2022-11-12T08:50:56.787Z,6.80
2022-11-12T08:53:24.765Z,6.90
2022-11-12T08:55:55.629Z,7.00
2022-11-12T08:58:23.266Z,7.10
2022-11-12T09:00:51.003Z,7.10
2022-11-12T09:03:20.096Z,7.20
2022-11-12T09:05:47.155Z,7.30
2022-11-12T09:08:16.924Z,7.30
2022-11-12T09:10:44.297Z,7.40
2022-11-12T09:13:11.065Z,7.40
2022-11-12T09:15:38.885Z,7.50
2022-11-12T09:18:08.344Z,7.60
2022-11-12T09:20:34.976Z,7.70
2022-11-12T09:23:13.726Z,7.80
2022-11-12T09:25:41.624Z,8.00
2022-11-12T09:28:10.823Z,8.10
2022-11-12T09:30:41.663Z,8.30
2022-11-12T09:33:08.332Z,8.40
2022-11-12T09:35:35.289Z,8.50
2022-11-12T09:38:01.996Z,8.50
2022-11-12T09:40:51.295Z,8.60
2022-11-12T09:43:25.582Z,8.70
2022-11-12T09:46:06.937Z,8.70
2022-11-12T09:48:48.680Z,8.70
2022-11-12T09:51:35.897Z,8.80
2022-11-12T09:54:11.661Z,8.80
2022-11-12T09:56:38.349Z,8.80
2022-11-12T09:59:11.872Z,8.80
2022-11-12T10:01:53.709Z,8.80
2022-11-12T10:04:56.860Z,8.90
2022-11-12T10:07:51.145Z,8.90
2022-11-12T10:10:28.851Z,9.00
2022-11-12T10:13:25.745Z,9.10
2022-11-12T10:16:20.273Z,9.20
2022-11-12T10:19:09.786Z,9.30
2022-11-12T10:22:05.093Z,9.40
2022-11-12T10:24:38.554Z,9.50
2022-11-12T10:27:18.576Z,9.60
2022-11-12T10:29:54.633Z,9.80
2022-11-12T10:32:21.300Z,9.90
2022-11-12T10:34:48.107Z,10.00
2022-11-12T10:37:25.535Z,10.10
2022-11-12T10:39:52.698Z,10.30
2022-11-12T10:42:21.915Z,10.40
2022-11-12T10:44:49.028Z,10.60
2022-11-12T10:47:42.143Z,10.90
2022-11-12T10:50:08.761Z,11.00
2022-11-12T10:52:36.043Z,11.10
2022-11-12T10:55:07.127Z,11.20
2022-11-12T10:57:33.868Z,11.40
2022-11-12T11:00:12.344Z,11.50
2022-11-12T11:02:51.391Z,11.60
2022-11-12T11:05:38.596Z,11.70
2022-11-12T11:08:06.126Z,11.90
2022-11-12T11:10:36.390Z,12.10
2022-11-12T11:13:20.827Z,12.30
2022-11-12T11:15:58.474Z,12.40
2022-11-12T11:18:25.867Z,12.70
2022-11-12T11:21:29.791Z,12.80
2022-11-12T11:24:10.746Z,12.90
2022-11-12T11:26:59.475Z,13.00
2022-11-12T11:29:28.936Z,13.10
2022-11-12T11:32:13.643Z,13.20
2022-11-12T11:34:55.808Z,13.30
2022-11-12T11:37:28.822Z,13.40
2022-11-12T11:40:14.560Z,13.50
2022-11-12T11:43:08.301Z,13.60
2022-11-12T11:45:43.921Z,13.80
2022-11-12T11:48:22.993Z,13.90
2022-11-12T11:51:07.237Z,14.00
2022-11-12T11:54:10.395Z,14.20
2022-11-12T11:56:42.924Z,14.30
2022-11-12T11:59:12.555Z,14.30
2022-11-12T12:02:01.211Z,14.30
2022-11-12T12:04:51.599Z,14.20
2022-11-12T12:07:24.948Z,14.20
2022-11-12T12:10:30.339Z,14.20
2022-11-12T12:13:31.304Z,14.10
2022-11-12T12:16:09.859Z,14.00
2022-11-12T12:19:04.219Z,14.00
2022-11-12T12:21:34.343Z,14.00
2022-11-12T12:24:22.501Z,13.90
2022-11-12T12:27:14.720Z,13.80
2022-11-12T12:29:47.613Z,13.90
2022-11-12T12:32:28.497Z,13.80
2022-11-12T12:35:20.047Z,13.80
2022-11-12T12:37:57.280Z,13.70
2022-11-12T12:40:39.086Z,13.60
2022-11-12T12:43:43.786Z,13.50
2022-11-12T12:46:14.111Z,13.50
2022-11-12T12:48:42.505Z,13.50
2022-11-12T12:51:09.423Z,13.50
2022-11-12T12:53:36.848Z,13.40
2022-11-12T12:56:27.689Z,13.40
2022-11-12T12:58:55.303Z,13.30
2022-11-12T13:01:24.728Z,13.40
2022-11-12T13:04:04.619Z,13.30
2022-11-12T13:06:33.672Z,13.30
2022-11-12T13:09:20.246Z,13.20
2022-11-12T13:12:04.324Z,13.20
2022-11-12T13:14:37.047Z,13.20
2022-11-12T13:17:12.013Z,13.20
2022-11-12T13:19:47.764Z,13.30
2022-11-12T13:22:17.537Z,13.30
2022-11-12T13:25:12.153Z,13.40
2022-11-12T13:27:44.714Z,13.40
2022-11-12T13:30:31.411Z,13.40
2022-11-12T13:32:59.054Z,13.40
2022-11-12T13:35:27.101Z,13.50
2022-11-12T13:38:07.809Z,13.60
2022-11-12T13:40:52.785Z,13.60
2022-11-12T13:43:34.442Z,13.60
2022-11-12T13:46:13.311Z,13.60
2022-11-12T13:48:50.551Z,13.70
2022-11-12T13:51:37.286Z,13.60
2022-11-12T13:54:24.912Z,13.70
2022-11-12T13:56:51.652Z,13.80
2022-11-12T13:59:21.136Z,13.90
2022-11-12T14:01:49.960Z,13.90
2022-11-12T14:04:19.882Z,14.00
2022-11-12T14:06:52.600Z,14.00
2022-11-12T14:09:44.492Z,14.10
2022-11-12T14:12:44.107Z,14.10
2022-11-12T14:15:40.956Z,14.20
2022-11-12T14:18:31.856Z,14.20
2022-11-12T14:20:58.878Z,14.20
2022-11-12T14:23:26.332Z,14.10
2022-11-12T14:25:56.918Z,13.90
2022-11-12T14:28:31.928Z,13.70
2022-11-12T14:31:00.515Z,13.60
2022-11-12T14:33:29.008Z,13.40
2022-11-12T14:36:03.127Z,13.20
2022-11-12T14:38:44.736Z,13.00
2022-11-12T14:41:20.442Z,12.80
2022-11-12T14:44:07.516Z,12.60
2022-11-12T14:46:56.700Z,12.40
2022-11-12T14:49:30.455Z,12.20
2022-11-12T14:52:13.082Z,12.00
2022-11-12T14:55:06.902Z,11.80
2022-11-12T14:57:33.706Z,11.60
2022-11-12T15:00:16.050Z,11.50
2022-11-12T15:02:55.716Z,11.30
2022-11-12T15:05:27.473Z,11.10
2022-11-12T15:08:00.635Z,11.00
2022-11-12T15:10:39.195Z,10.80
2022-11-12T15:13:08.259Z,10.70
2022-11-12T15:15:37.431Z,10.50
2022-11-12T15:18:07.295Z,10.40
2022-11-12T15:20:34.191Z,10.20
2022-11-12T15:23:01.100Z,10.10
2022-11-12T15:25:30.692Z,9.90
2022-11-12T15:28:22.271Z,9.80
2022-11-12T15:31:27.547Z,9.60
2022-11-12T15:33:56.343Z,9.50
2022-11-12T15:36:24.183Z,9.40
2022-11-12T15:38:54.733Z,9.20
2022-11-12T15:41:22.964Z,9.10
2022-11-12T15:43:49.654Z,9.00
2022-11-12T15:46:16.513Z,8.90
2022-11-12T15:48:43.226Z,8.80
2022-11-12T15:51:11.200Z,8.70
2022-11-12T15:53:38.156Z,8.50
2022-11-12T15:56:08.546Z,8.40
2022-11-12T15:58:37.428Z,8.30
2022-11-12T16:01:05.599Z,8.20
2022-11-12T16:03:33.064Z,8.10
2022-11-12T16:06:03.948Z,8.00
2022-11-12T16:08:34.001Z,8.00
2022-11-12T16:11:00.748Z,7.90
2022-11-12T16:13:31.079Z,7.80
2022-11-12T16:15:57.878Z,7.80
2022-11-12T16:18:24.563Z,7.70
2022-11-12T16:20:51.214Z,7.60
2022-11-12T16:23:17.818Z,7.60
2022-11-12T16:25:45.081Z,7.50
2022-11-12T16:28:18.077Z,7.40
2022-11-12T16:30:47.609Z,7.40
2022-11-12T16:33:14.671Z,7.30
2022-11-12T16:35:41.488Z,7.30
2022-11-12T16:38:14.817Z,7.20
2022-11-12T16:40:42.300Z,7.10
2022-11-12T16:43:09.161Z,7.10
2022-11-12T16:45:39.410Z,7.00
2022-11-12T16:48:20.014Z,6.90
2022-11-12T16:50:47.561Z,6.90
2022-11-12T16:53:14.359Z,6.80
2022-11-12T16:55:41.239Z,6.70
2022-11-12T16:58:11.789Z,6.70
2022-11-12T17:00:39.027Z,6.70
2022-11-12T17:03:05.647Z,6.60
2022-11-12T17:05:32.241Z,6.60
2022-11-12T17:07:58.953Z,6.50
2022-11-12T17:10:25.688Z,6.50
2022-11-12T17:12:52.954Z,6.40
2022-11-12T17:15:19.772Z,6.40
2022-11-12T17:17:46.384Z,6.30
2022-11-12T17:20:13.027Z,6.30
2022-11-12T17:22:39.778Z,6.20
2022-11-12T17:25:08.246Z,6.20
2022-11-12T17:27:34.917Z,6.10
2022-11-12T17:30:01.958Z,6.10
2022-11-12T17:32:28.572Z,6.00
2022-11-12T17:34:55.247Z,6.00
2022-11-12T17:37:21.891Z,6.00
2022-11-12T17:39:48.491Z,5.90
2022-11-12T17:42:15.144Z,5.90
2022-11-12T17:44:42.285Z,5.90
2022-11-12T17:47:08.855Z,5.80
2022-11-12T17:49:35.452Z,5.80
2022-11-12T17:52:02.181Z,5.80
2022-11-12T17:54:28.895Z,5.80
2022-11-12T17:56:55.508Z,5.80
2022-11-12T17:59:22.157Z,5.80
2022-11-12T18:01:48.752Z,5.80
2022-11-12T18:04:15.407Z,5.90
2022-11-12T18:06:42.083Z,5.90
2022-11-12T18:09:14.526Z,6.00
2022-11-12T18:11:49.602Z,6.00
2022-11-12T18:14:16.829Z,6.10
2022-11-12T18:16:44.124Z,6.10
2022-11-12T18:19:12.953Z,6.20
2022-11-12T18:21:40.626Z,6.20
2022-11-12T18:24:12.391Z,6.30
2022-11-12T18:26:40.503Z,6.30
2022-11-12T18:29:07.585Z,6.40
2022-11-12T18:31:34.354Z,6.50
2022-11-12T18:34:01.138Z,6.50
2022-11-12T18:36:29.032Z,6.60
2022-11-12T18:38:56.135Z,6.70
2022-11-12T18:41:30.124Z,6.70
2022-11-12T18:43:57.052Z,6.80
2022-11-12T18:46:23.946Z,6.90
2022-11-12T18:48:51.008Z,6.90
2022-11-12T18:51:19.343Z,6.90
2022-11-12T18:53:46.530Z,6.90
2022-11-12T18:56:20.861Z,7.00
2022-11-12T18:58:47.938Z,7.00
2022-11-12T19:01:21.104Z,7.10
2022-11-12T19:03:51.691Z,7.10
2022-11-12T19:06:18.474Z,7.20
2022-11-12T19:08:45.182Z,7.20
2022-11-12T19:11:15.148Z,7.30
2022-11-12T19:13:42.429Z,7.20
2022-11-12T19:16:12.720Z,7.30
2022-11-12T19:18:40.982Z,7.30
2022-11-12T19:21:10.624Z,7.30
2022-11-12T19:23:37.475Z,7.30
2022-11-12T19:26:06.533Z,7.40
2022-11-12T19:28:34.887Z,7.40
2022-11-12T19:31:16.337Z,7.40
2022-11-12T19:33:43.084Z,7.50
2022-11-12T19:36:15.091Z,7.50
2022-11-12T19:38:41.803Z,7.50
2022-11-12T19:41:19.073Z,7.50
2022-11-12T19:43:46.925Z,7.60
2022-11-12T19:46:14.525Z,7.60
2022-11-12T19:48:41.673Z,7.70
2022-11-12T19:51:10.415Z,7.70
2022-11-12T19:53:46.890Z,7.70
2022-11-12T19:56:17.375Z,7.70
2022-11-12T19:58:48.864Z,7.70
2022-11-12T20:01:18.354Z,7.80
2022-11-12T20:03:45.509Z,7.80
2022-11-12T20:06:17.755Z,7.80
2022-11-12T20:08:45.091Z,7.80
2022-11-12T20:11:12.540Z,7.80
2022-11-12T20:13:39.464Z,7.90
2022-11-12T20:16:08.265Z,7.90
2022-11-12T20:18:34.996Z,7.90
2022-11-12T20:21:04.845Z,7.90
2022-11-12T20:23:33.831Z,8.00
2022-11-12T20:26:06.507Z,8.00
2022-11-12T20:28:34.476Z,8.00
2022-11-12T20:31:10.114Z,8.00
2022-11-12T20:33:42.036Z,8.00
2022-11-12T20:36:14.780Z,8.00
2022-11-12T20:38:43.252Z,8.10
2022-11-12T20:41:25.128Z,8.10
2022-11-12T20:43:57.600Z,8.10
2022-11-12T20:46:25.483Z,8.10
2022-11-12T20:48:54.027Z,8.20
2022-11-12T20:51:25.545Z,8.20
2022-11-12T20:53:58.923Z,8.20
2022-11-12T20:56:28.624Z,8.20
2022-11-12T20:58:55.539Z,8.20
2022-11-12T21:01:23.747Z,8.30
2022-11-12T21:03:51.192Z,8.20
2022-11-12T21:06:20.738Z,8.30
2022-11-12T21:08:47.731Z,8.30
2022-11-12T21:11:16.815Z,8.30
2022-11-12T21:13:43.726Z,8.30
2022-11-12T21:16:12.285Z,8.30
2022-11-12T21:18:39.840Z,8.40
2022-11-12T21:21:09.308Z,8.40
2022-11-12T21:23:37.805Z,8.40
2022-11-12T21:26:21.846Z,8.40
2022-11-12T21:28:54.076Z,8.40
2022-11-12T21:31:23.326Z,8.50
2022-11-12T21:33:54.795Z,8.50
2022-11-12T21:36:21.761Z,8.50
2022-11-12T21:38:48.833Z,8.50
2022-11-12T21:41:20.888Z,8.60
2022-11-12T21:43:48.488Z,8.60
2022-11-12T21:46:18.795Z,8.60
2022-11-12T21:48:48.282Z,8.60
2022-11-12T21:51:20.230Z,8.60
2022-11-12T21:53:46.915Z,8.60
2022-11-12T21:56:16.505Z,8.60
2022-11-12T21:58:44.226Z,8.60
2022-11-12T22:01:17.327Z,8.60
2022-11-12T22:03:44.576Z,8.60
2022-11-12T22:06:11.572Z,8.60
2022-11-12T22:08:38.808Z,8.60
2022-11-12T22:11:10.985Z,8.70
2022-11-12T22:13:37.867Z,8.70
2022-11-12T22:16:07.413Z,8.70
2022-11-12T22:18:34.480Z,8.70
2022-11-12T22:21:07.376Z,8.70
2022-11-12T22:23:36.052Z,8.80
2022-11-12T22:26:10.737Z,8.80
2022-11-12T22:28:37.908Z,8.80
2022-11-12T22:31:14.037Z,8.80
2022-11-12T22:33:41.142Z,8.80
2022-11-12T22:36:20.927Z,8.80
2022-11-12T22:38:50.273Z,8.80
2022-11-12T22:41:19.325Z,8.80
2022-11-12T22:43:50.599Z,8.80
2022-11-12T22:46:20.836Z,8.90
2022-11-12T22:48:47.406Z,8.90
2022-11-12T22:51:16.544Z,8.90
2022-11-12T22:53:43.300Z,8.90
2022-11-12T22:56:13.389Z,8.90
2022-11-12T22:58:45.567Z,8.90
2022-11-12T23:01:19.883Z,9.00
2022-11-12T23:03:46.673Z,9.00
2022-11-12T23:06:13.292Z,9.00
2022-11-12T23:08:40.033Z,9.00
2022-11-12T23:11:11.114Z,9.00
2022-11-12T23:13:38.461Z,9.00
2022-11-12T23:16:14.663Z,9.00
2022-11-12T23:18:41.616Z,9.10
2022-11-12T23:21:17.380Z,9.00
2022-11-12T23:23:44.413Z,9.10
2022-11-12T23:26:19.787Z,9.10
2022-11-12T23:28:46.580Z,9.10
2022-11-12T23:31:19.292Z,9.10
2022-11-12T23:33:54.376Z,9.10
2022-11-12T23:36:22.136Z,9.10
2022-11-12T23:38:48.902Z,9.10
2022-11-12T23:41:18.824Z,9.10
2022-11-12T23:43:45.540Z,9.10
2022-11-12T23:46:12.784Z,9.20
2022-11-12T23:48:39.479Z,9.20
2022-11-12T23:51:09.798Z,9.20
2022-11-12T23:53:37.778Z,9.20
2022-11-12T23:56:05.921Z,9.20
2022-11-12T23:58:33.164Z,9.30
